V/Λ SELECT: Month and Year
OR > Month
Monthly Climatological Summary for Oct 2012
Name: www.delerius-weather.com City: Winterton State: North Lincolnshire
Elevation: 42 m Lat: N 53° 39' 10" Lon: W 000° 36' 49"
Temperature (°C), Rain (mm), Wind Speed (mph)
Heat Cool Avg
Mean Deg Deg Wind Dom
Day Temp High Time Low Time Days Days Rain Speed High Time Dir
----------------------------------------------------------------------------------
1 13.8 17.9 21:00 10.2 02:15 14.4 0.0 1.2 10.1 26.0 15:00 WSW
2 13.7 17.2 21:00 9.4 02:15 14.4 0.0 1.4 14.1 34.0 22:15 SW
3 10.6 14.8 21:00 7.2 02:15 14.4 0.0 0.0 16.3 35.0 16:00 WSW
4 9.8 15.8 21:00 4.8 02:15 14.4 0.0 0.0 8.6 21.0 15:00 SW
5 10.5 13.1 21:00 8.2 02:15 14.4 0.0 2.2 14.3 35.0 14:15 W
6 9.8 15.2 21:00 5.4 02:15 14.4 0.0 0.8 7.9 26.0 00:45 WNW
7 7.2 11.4 21:00 3.6 02:15 14.4 0.0 0.2 5.0 14.0 23:59 SSW
8 9.4 15.1 21:00 5.0 02:15 14.4 0.0 0.0 6.7 18.0 20:45 NNE
9 6.9 12.3 21:00 3.1 02:15 14.4 0.0 0.0 4.3 18.0 12:15 E
10 7.8 13.4 21:00 2.2 02:15 14.4 0.0 0.0 6.0 18.0 14:00 SSW
11 9.6 15.1 21:00 5.7 02:15 14.4 0.0 1.0 15.4 36.0 22:30 SE
12 9.6 13.0 21:00 6.0 02:15 14.4 0.0 2.2 17.7 41.0 13:45 WSW
13 5.9 10.0 21:00 2.6 02:15 14.4 0.0 0.0 4.1 16.0 02:15 NW
14 6.7 10.8 21:00 3.1 02:15 14.4 0.0 0.0 9.4 32.0 14:45 NNW
15 6.6 12.9 21:00 2.6 02:15 14.4 0.0 0.2 5.9 16.0 08:30 SSW
16 7.6 12.2 21:00 4.1 02:15 14.4 0.0 3.0 19.7 54.0 12:00 SSW
17 8.2 16.1 21:00 3.5 02:15 14.4 0.0 2.2 14.2 38.0 08:15 S
18 11.7 16.3 21:00 9.1 02:15 14.4 0.0 4.0 9.0 24.0 12:00 S
19 9.9 13.8 21:00 7.6 02:15 14.4 0.0 0.6 4.0 20.0 00:15 S
20 9.7 13.1 21:00 7.1 02:15 14.4 0.0 0.2 2.7 16.0 12:15 SSW
21 8.8 11.2 21:00 6.3 02:15 14.4 0.0 0.4 6.3 21.0 23:00 ENE
22 11.1 12.6 21:00 10.3 02:15 14.4 0.0 1.0 11.6 22.0 01:45 ENE
23 11.4 13.4 21:00 10.3 02:15 14.4 0.0 0.0 10.0 20.0 15:45 ENE
24 11.3 12.3 21:00 10.4 02:15 14.4 0.0 0.2 12.5 22.0 17:45 ENE
25 9.1 10.8 21:00 7.6 02:15 14.4 0.0 0.0 12.6 33.0 20:45 ENE
26 4.4 7.6 21:00 1.8 02:15 14.4 0.0 4.8 15.0 37.0 15:30 NE
27 4.2 8.5 21:00 0.6 02:15 14.4 0.0 1.4 18.0 49.0 02:30 WNW
28 4.8 9.7 21:00 0.1 02:15 14.4 0.0 1.6 15.6 27.0 05:30 WSW
29 7.2 10.2 21:00 4.9 02:15 14.4 0.0 0.2 9.2 25.0 00:15 NNW
30 5.2 10.0 21:00 1.6 02:15 14.4 0.0 0.2 11.6 27.0 13:00 WSW
31 7.3 10.9 21:00 5.4 02:15 14.4 0.0 1.6 23.0 46.0 15:30 W
----------------------------------------------------------------------------------
8.7 17.9 1 0.1 1 446.4 0.0 30.6 10.8 54.0 16 WSW
Max >= 27.0: 0
Max <= 0.0: 0
Min <= 0.0: 0
Min <= -18.0: 0
Max Rain: 4.8 on day 26
Days of Rain: 22 (>= 0.2 mm) 6 (>= 2.0 mm) 0 (>= 20.0 mm)
Heat Base: 18.3 Cool Base: 18.3 Method: Integration